Portland, Oregon
Current Conditions -  °F | °C
As of 1:11 AM on Friday 28 Nov 2014 (Local Time) from KPDX Reporting Station
Light Rain Light Rain  
Wind Chill: 54°   Ceiling: 1800
Heat Index: 54°   Visibility: 10mi
Dew Point: 51°   Wind: 14mph
Humidity: 90%   Direction: 180°S
Pressure: 29.79"   Gusts: NA
Location:  45.51°N, 122.67°W
Report Text: KPDX 280911Z 18012KT 10SM -RA BKN018 BKN027 OVC037 12/11 A2979 RMK AO2 RAB02 P0000 T01220106
Loading
Personal Weather Stations






























Interactive Weather Map New forecast layout! Learn more

10-Day Weather Forecast

Advertisements
Track Severe Weather on mobile